Lyons, New York
Current Conditions -  °F | °C
As of 12:53 AM on Tuesday 21 Oct 2014 (Local Time) from KPEO Reporting Station
Light Rain Light Rain  
Wind Chill: 46°   Ceiling: 4500
Heat Index: 49°   Visibility: 7mi
Dew Point: 45°   Wind: 7mph
Humidity: 86%   Direction: 210°SSW
Pressure: 29.85"   Gusts: NA
Location:  43.06°N, 76.99°W
Report Text: KPEO 210453Z AUTO 21006KT 7SM -RA BKN045 OVC050 09/07 A2985 RMK AO2 RAB00E11B27 SLP111 P0001 T00940072 401280033
Loading
Personal Weather Stations






























Interactive Weather Map
Tropical Storm Tracking
New forecast layout! Learn more

10-Day Weather Forecast

Advertisements
Track Severe Weather on mobile